sensor_id;sensor_type;location;lat;lon;timestamp;temperature;humidity
5164;DHT22;2601;50.224;10.126;2023-04-25T00:02:20;16.20;98.20
5164;DHT22;2601;50.224;10.126;2023-04-25T00:04:46;16.20;98.30
5164;DHT22;2601;50.224;10.126;2023-04-25T00:07:14;16.20;98.20
5164;DHT22;2601;50.224;10.126;2023-04-25T00:09:39;16.20;98.20
5164;DHT22;2601;50.224;10.126;2023-04-25T00:12:05;16.20;98.20
5164;DHT22;2601;50.224;10.126;2023-04-25T00:14:31;16.20;98.20
5164;DHT22;2601;50.224;10.126;2023-04-25T00:16:59;16.20;98.20
5164;DHT22;2601;50.224;10.126;2023-04-25T00:19:26;16.20;98.20
5164;DHT22;2601;50.224;10.126;2023-04-25T00:21:56;16.20;98.10
5164;DHT22;2601;50.224;10.126;2023-04-25T00:24:22;16.20;98.10
5164;DHT22;2601;50.224;10.126;2023-04-25T00:26:48;16.20;98.10
5164;DHT22;2601;50.224;10.126;2023-04-25T00:29:14;16.20;98.10
5164;DHT22;2601;50.224;10.126;2023-04-25T00:31:39;16.20;98.10
5164;DHT22;2601;50.224;10.126;2023-04-25T00:34:06;16.20;98.10
5164;DHT22;2601;50.224;10.126;2023-04-25T00:36:32;16.20;98.10
5164;DHT22;2601;50.224;10.126;2023-04-25T00:38:58;16.20;98.10
5164;DHT22;2601;50.224;10.126;2023-04-25T00:41:25;16.20;98.10
5164;DHT22;2601;50.224;10.126;2023-04-25T00:43:52;16.20;98.10
5164;DHT22;2601;50.224;10.126;2023-04-25T00:46:19;16.20;98.10
5164;DHT22;2601;50.224;10.126;2023-04-25T00:48:44;16.20;98.10
5164;DHT22;2601;50.224;10.126;2023-04-25T00:51:14;16.20;98.10
5164;DHT22;2601;50.224;10.126;2023-04-25T00:53:41;16.20;98.10
5164;DHT22;2601;50.224;10.126;2023-04-25T00:56:07;16.20;98.10
5164;DHT22;2601;50.224;10.126;2023-04-25T00:58:32;16.20;98.10
5164;DHT22;2601;50.224;10.126;2023-04-25T01:00:59;16.20;98.10
5164;DHT22;2601;50.224;10.126;2023-04-25T01:03:26;16.20;98.10
5164;DHT22;2601;50.224;10.126;2023-04-25T01:05:54;16.20;98.10
5164;DHT22;2601;50.224;10.126;2023-04-25T01:08:22;16.20;98.20
5164;DHT22;2601;50.224;10.126;2023-04-25T01:10:48;16.20;98.20
5164;DHT22;2601;50.224;10.126;2023-04-25T01:13:14;16.20;98.20
5164;DHT22;2601;50.224;10.126;2023-04-25T01:15:40;16.20;98.20
5164;DHT22;2601;50.224;10.126;2023-04-25T01:18:05;16.20;98.20
5164;DHT22;2601;50.224;10.126;2023-04-25T01:20:32;16.20;98.20
5164;DHT22;2601;50.224;10.126;2023-04-25T01:22:59;16.20;98.20
5164;DHT22;2601;50.224;10.126;2023-04-25T01:25:26;16.20;98.30
5164;DHT22;2601;50.224;10.126;2023-04-25T01:27:51;16.20;98.20
5164;DHT22;2601;50.224;10.126;2023-04-25T01:30:17;16.20;98.20
5164;DHT22;2601;50.224;10.126;2023-04-25T01:32:43;16.20;98.30
5164;DHT22;2601;50.224;10.126;2023-04-25T01:35:10;16.20;98.30
5164;DHT22;2601;50.224;10.126;2023-04-25T01:37:40;16.20;98.30
5164;DHT22;2601;50.224;10.126;2023-04-25T01:40:08;16.20;98.20
5164;DHT22;2601;50.224;10.126;2023-04-25T01:42:36;16.20;98.30
5164;DHT22;2601;50.224;10.126;2023-04-25T01:45:02;16.20;98.30
5164;DHT22;2601;50.224;10.126;2023-04-25T01:47:28;16.20;98.30
5164;DHT22;2601;50.224;10.126;2023-04-25T01:49:54;16.20;98.30
5164;DHT22;2601;50.224;10.126;2023-04-25T01:52:19;16.20;98.30
5164;DHT22;2601;50.224;10.126;2023-04-25T01:54:45;16.20;98.30
5164;DHT22;2601;50.224;10.126;2023-04-25T01:57:11;16.10;98.30
5164;DHT22;2601;50.224;10.126;2023-04-25T01:59:37;16.20;98.30
5164;DHT22;2601;50.224;10.126;2023-04-25T02:02:03;16.20;98.30
5164;DHT22;2601;50.224;10.126;2023-04-25T02:04:32;16.20;98.30
5164;DHT22;2601;50.224;10.126;2023-04-25T02:06:58;16.20;98.40
5164;DHT22;2601;50.224;10.126;2023-04-25T02:09:24;16.20;98.30
5164;DHT22;2601;50.224;10.126;2023-04-25T02:11:49;16.20;98.30
5164;DHT22;2601;50.224;10.126;2023-04-25T02:14:15;16.10;98.30
5164;DHT22;2601;50.224;10.126;2023-04-25T02:16:41;16.20;98.30
5164;DHT22;2601;50.224;10.126;2023-04-25T02:19:09;16.20;98.30
5164;DHT22;2601;50.224;10.126;2023-04-25T02:21:35;16.20;98.30
5164;DHT22;2601;50.224;10.126;2023-04-25T02:24:02;16.20;98.30
5164;DHT22;2601;50.224;10.126;2023-04-25T02:26:27;16.10;98.20
5164;DHT22;2601;50.224;10.126;2023-04-25T02:28:53;16.20;98.30
5164;DHT22;2601;50.224;10.126;2023-04-25T02:31:18;16.20;98.30
5164;DHT22;2601;50.224;10.126;2023-04-25T02:33:44;16.10;98.30
5164;DHT22;2601;50.224;10.126;2023-04-25T02:36:10;16.20;98.30
5164;DHT22;2601;50.224;10.126;2023-04-25T02:38:35;16.20;98.30
5164;DHT22;2601;50.224;10.126;2023-04-25T02:41:01;16.20;98.30
5164;DHT22;2601;50.224;10.126;2023-04-25T02:43:26;16.20;98.30
5164;DHT22;2601;50.224;10.126;2023-04-25T02:45:52;16.20;98.30
5164;DHT22;2601;50.224;10.126;2023-04-25T02:48:18;16.20;98.40
5164;DHT22;2601;50.224;10.126;2023-04-25T02:50:43;16.20;98.30
5164;DHT22;2601;50.224;10.126;2023-04-25T02:53:09;16.20;98.40
5164;DHT22;2601;50.224;10.126;2023-04-25T02:55:34;16.20;98.40
5164;DHT22;2601;50.224;10.126;2023-04-25T02:58:00;16.20;98.30
5164;DHT22;2601;50.224;10.126;2023-04-25T03:00:25;16.20;98.30
5164;DHT22;2601;50.224;10.126;2023-04-25T03:02:51;16.20;98.20
5164;DHT22;2601;50.224;10.126;2023-04-25T03:05:17;16.20;98.20
5164;DHT22;2601;50.224;10.126;2023-04-25T03:07:43;16.20;98.20
5164;DHT22;2601;50.224;10.126;2023-04-25T03:10:09;16.20;98.20
5164;DHT22;2601;50.224;10.126;2023-04-25T03:12:35;16.10;98.10
5164;DHT22;2601;50.224;10.126;2023-04-25T03:15:00;16.10;98.10
5164;DHT22;2601;50.224;10.126;2023-04-25T03:17:26;16.10;98.10
5164;DHT22;2601;50.224;10.126;2023-04-25T03:19:52;16.10;98.10
5164;DHT22;2601;50.224;10.126;2023-04-25T03:22:17;16.10;98.10
5164;DHT22;2601;50.224;10.126;2023-04-25T03:24:43;16.10;98.00
5164;DHT22;2601;50.224;10.126;2023-04-25T03:27:08;16.10;98.00
5164;DHT22;2601;50.224;10.126;2023-04-25T03:29:34;16.10;98.00
5164;DHT22;2601;50.224;10.126;2023-04-25T03:31:59;16.10;98.00
5164;DHT22;2601;50.224;10.126;2023-04-25T03:34:25;16.10;98.00
5164;DHT22;2601;50.224;10.126;2023-04-25T03:36:51;16.10;98.00
5164;DHT22;2601;50.224;10.126;2023-04-25T03:39:17;16.10;98.00
5164;DHT22;2601;50.224;10.126;2023-04-25T03:41:42;16.10;97.90
5164;DHT22;2601;50.224;10.126;2023-04-25T03:44:08;16.10;97.90
5164;DHT22;2601;50.224;10.126;2023-04-25T03:46:33;16.10;97.90
5164;DHT22;2601;50.224;10.126;2023-04-25T03:48:59;16.10;97.90
5164;DHT22;2601;50.224;10.126;2023-04-25T03:51:25;16.10;97.90
5164;DHT22;2601;50.224;10.126;2023-04-25T03:53:52;16.10;98.20
5164;DHT22;2601;50.224;10.126;2023-04-25T03:56:17;16.10;97.90
5164;DHT22;2601;50.224;10.126;2023-04-25T03:58:43;16.10;97.90
5164;DHT22;2601;50.224;10.126;2023-04-25T04:01:09;16.10;97.90
5164;DHT22;2601;50.224;10.126;2023-04-25T04:03:35;16.10;97.90
5164;DHT22;2601;50.224;10.126;2023-04-25T04:06:02;16.10;98.00
5164;DHT22;2601;50.224;10.126;2023-04-25T04:08:29;16.10;97.90
5164;DHT22;2601;50.224;10.126;2023-04-25T04:10:56;16.10;98.00
5164;DHT22;2601;50.224;10.126;2023-04-25T04:13:21;16.10;98.00
5164;DHT22;2601;50.224;10.126;2023-04-25T04:15:47;16.10;98.00
5164;DHT22;2601;50.224;10.126;2023-04-25T04:18:13;16.10;97.90
5164;DHT22;2601;50.224;10.126;2023-04-25T04:20:38;16.10;97.90
5164;DHT22;2601;50.224;10.126;2023-04-25T04:23:04;16.10;97.90
5164;DHT22;2601;50.224;10.126;2023-04-25T04:25:30;16.10;97.90
5164;DHT22;2601;50.224;10.126;2023-04-25T04:27:56;16.10;98.20
5164;DHT22;2601;50.224;10.126;2023-04-25T04:30:23;16.10;97.90
5164;DHT22;2601;50.224;10.126;2023-04-25T04:32:50;16.10;97.90
5164;DHT22;2601;50.224;10.126;2023-04-25T04:35:16;16.10;97.90
5164;DHT22;2601;50.224;10.126;2023-04-25T04:37:41;16.10;97.90
5164;DHT22;2601;50.224;10.126;2023-04-25T04:40:07;16.10;97.80
5164;DHT22;2601;50.224;10.126;2023-04-25T04:42:34;16.10;97.80
5164;DHT22;2601;50.224;10.126;2023-04-25T04:45:01;16.10;97.80
5164;DHT22;2601;50.224;10.126;2023-04-25T04:47:28;16.10;97.80
5164;DHT22;2601;50.224;10.126;2023-04-25T04:49:56;16.10;97.80
5164;DHT22;2601;50.224;10.126;2023-04-25T04:52:22;16.10;97.80
5164;DHT22;2601;50.224;10.126;2023-04-25T04:54:48;16.10;97.80
5164;DHT22;2601;50.224;10.126;2023-04-25T04:57:13;16.10;97.70
5164;DHT22;2601;50.224;10.126;2023-04-25T04:59:39;16.10;97.80
5164;DHT22;2601;50.224;10.126;2023-04-25T05:02:05;16.10;97.70
5164;DHT22;2601;50.224;10.126;2023-04-25T05:04:30;16.10;97.70
5164;DHT22;2601;50.224;10.126;2023-04-25T05:06:56;16.10;98.00
5164;DHT22;2601;50.224;10.126;2023-04-25T05:09:21;16.10;97.70
5164;DHT22;2601;50.224;10.126;2023-04-25T05:11:51;16.10;97.70
5164;DHT22;2601;50.224;10.126;2023-04-25T05:14:17;16.10;97.70
5164;DHT22;2601;50.224;10.126;2023-04-25T05:16:43;16.10;97.70
5164;DHT22;2601;50.224;10.126;2023-04-25T05:19:09;16.10;97.60
5164;DHT22;2601;50.224;10.126;2023-04-25T05:21:34;16.10;97.60
5164;DHT22;2601;50.224;10.126;2023-04-25T05:24:01;16.10;97.60
5164;DHT22;2601;50.224;10.126;2023-04-25T05:26:26;16.10;97.60
5164;DHT22;2601;50.224;10.126;2023-04-25T05:28:59;16.10;97.60
5164;DHT22;2601;50.224;10.126;2023-04-25T05:31:25;16.10;97.50
5164;DHT22;2601;50.224;10.126;2023-04-25T05:33:52;16.10;97.60
5164;DHT22;2601;50.224;10.126;2023-04-25T05:36:21;16.10;97.50
5164;DHT22;2601;50.224;10.126;2023-04-25T05:38:46;16.10;97.50
5164;DHT22;2601;50.224;10.126;2023-04-25T05:41:12;16.10;97.40
5164;DHT22;2601;50.224;10.126;2023-04-25T05:43:37;16.10;97.40
5164;DHT22;2601;50.224;10.126;2023-04-25T05:46:03;16.10;97.40
5164;DHT22;2601;50.224;10.126;2023-04-25T05:48:29;16.10;97.40
5164;DHT22;2601;50.224;10.126;2023-04-25T05:50:55;16.10;97.30
5164;DHT22;2601;50.224;10.126;2023-04-25T05:53:21;16.10;97.30
5164;DHT22;2601;50.224;10.126;2023-04-25T05:55:47;16.10;97.20
5164;DHT22;2601;50.224;10.126;2023-04-25T05:58:12;16.00;97.10
5164;DHT22;2601;50.224;10.126;2023-04-25T06:00:38;16.10;97.10
5164;DHT22;2601;50.224;10.126;2023-04-25T06:03:03;16.00;97.10
5164;DHT22;2601;50.224;10.126;2023-04-25T06:05:29;16.10;97.00
5164;DHT22;2601;50.224;10.126;2023-04-25T06:07:55;16.00;97.00
5164;DHT22;2601;50.224;10.126;2023-04-25T06:10:21;16.00;96.90
5164;DHT22;2601;50.224;10.126;2023-04-25T06:12:47;16.00;97.10
5164;DHT22;2601;50.224;10.126;2023-04-25T06:15:13;16.00;96.80
5164;DHT22;2601;50.224;10.126;2023-04-25T06:17:39;16.00;96.80
5164;DHT22;2601;50.224;10.126;2023-04-25T06:20:05;16.00;96.70
5164;DHT22;2601;50.224;10.126;2023-04-25T06:22:31;16.00;96.70
5164;DHT22;2601;50.224;10.126;2023-04-25T06:24:56;16.00;96.70
5164;DHT22;2601;50.224;10.126;2023-04-25T06:27:24;16.00;96.70
5164;DHT22;2601;50.224;10.126;2023-04-25T06:29:49;16.00;96.70
5164;DHT22;2601;50.224;10.126;2023-04-25T06:32:15;16.00;96.70
5164;DHT22;2601;50.224;10.126;2023-04-25T06:34:40;16.00;96.70
5164;DHT22;2601;50.224;10.126;2023-04-25T06:37:06;16.00;96.70
5164;DHT22;2601;50.224;10.126;2023-04-25T06:39:32;16.00;96.60
5164;DHT22;2601;50.224;10.126;2023-04-25T06:41:57;16.00;96.60
5164;DHT22;2601;50.224;10.126;2023-04-25T06:44:23;16.00;96.60
5164;DHT22;2601;50.224;10.126;2023-04-25T06:46:49;16.00;96.60
5164;DHT22;2601;50.224;10.126;2023-04-25T06:49:15;16.00;96.50
5164;DHT22;2601;50.224;10.126;2023-04-25T06:51:41;16.00;96.40
5164;DHT22;2601;50.224;10.126;2023-04-25T06:54:06;16.00;96.30
5164;DHT22;2601;50.224;10.126;2023-04-25T06:56:32;16.00;96.20
5164;DHT22;2601;50.224;10.126;2023-04-25T06:58:57;16.00;96.20
5164;DHT22;2601;50.224;10.126;2023-04-25T07:01:23;16.00;96.20
5164;DHT22;2601;50.224;10.126;2023-04-25T07:03:48;16.00;96.20
5164;DHT22;2601;50.224;10.126;2023-04-25T07:06:14;16.00;96.20
5164;DHT22;2601;50.224;10.126;2023-04-25T07:08:40;16.00;96.10
5164;DHT22;2601;50.224;10.126;2023-04-25T07:11:05;16.00;96.20
5164;DHT22;2601;50.224;10.126;2023-04-25T07:13:31;16.00;96.10
5164;DHT22;2601;50.224;10.126;2023-04-25T07:15:56;16.00;96.00
5164;DHT22;2601;50.224;10.126;2023-04-25T07:18:22;16.00;95.90
5164;DHT22;2601;50.224;10.126;2023-04-25T07:20:48;16.00;95.90
5164;DHT22;2601;50.224;10.126;2023-04-25T07:23:13;16.00;95.90
5164;DHT22;2601;50.224;10.126;2023-04-25T07:25:39;16.00;95.80
5164;DHT22;2601;50.224;10.126;2023-04-25T07:28:04;16.00;95.60
5164;DHT22;2601;50.224;10.126;2023-04-25T07:30:30;16.00;95.70
5164;DHT22;2601;50.224;10.126;2023-04-25T07:32:56;15.90;95.50
5164;DHT22;2601;50.224;10.126;2023-04-25T07:35:21;16.00;95.60
5164;DHT22;2601;50.224;10.126;2023-04-25T07:37:47;16.00;95.40
5164;DHT22;2601;50.224;10.126;2023-04-25T07:40:13;16.00;95.50
5164;DHT22;2601;50.224;10.126;2023-04-25T07:42:41;16.00;95.50
5164;DHT22;2601;50.224;10.126;2023-04-25T07:45:06;16.00;95.40
5164;DHT22;2601;50.224;10.126;2023-04-25T07:47:32;16.00;95.40
5164;DHT22;2601;50.224;10.126;2023-04-25T07:49:58;15.90;95.20
5164;DHT22;2601;50.224;10.126;2023-04-25T07:52:23;15.90;95.20
5164;DHT22;2601;50.224;10.126;2023-04-25T07:54:49;15.90;95.40
5164;DHT22;2601;50.224;10.126;2023-04-25T07:57:14;16.00;95.50
5164;DHT22;2601;50.224;10.126;2023-04-25T07:59:42;16.00;95.40
5164;DHT22;2601;50.224;10.126;2023-04-25T08:02:07;16.00;95.40
5164;DHT22;2601;50.224;10.126;2023-04-25T08:04:33;16.00;95.30
5164;DHT22;2601;50.224;10.126;2023-04-25T08:06:58;16.00;95.40
5164;DHT22;2601;50.224;10.126;2023-04-25T08:09:24;16.00;95.30
5164;DHT22;2601;50.224;10.126;2023-04-25T08:11:50;15.90;95.20
5164;DHT22;2601;50.224;10.126;2023-04-25T08:14:15;16.00;95.20
5164;DHT22;2601;50.224;10.126;2023-04-25T08:16:41;16.00;95.20
5164;DHT22;2601;50.224;10.126;2023-04-25T08:19:07;16.00;95.20
5164;DHT22;2601;50.224;10.126;2023-04-25T08:21:32;16.00;95.10
5164;DHT22;2601;50.224;10.126;2023-04-25T08:23:58;16.00;95.00
5164;DHT22;2601;50.224;10.126;2023-04-25T08:26:25;15.90;95.00
5164;DHT22;2601;50.224;10.126;2023-04-25T08:28:50;16.00;95.00
5164;DHT22;2601;50.224;10.126;2023-04-25T08:31:16;16.00;95.00
5164;DHT22;2601;50.224;10.126;2023-04-25T08:33:42;16.00;95.20
5164;DHT22;2601;50.224;10.126;2023-04-25T08:36:08;16.00;95.00
5164;DHT22;2601;50.224;10.126;2023-04-25T08:38:33;16.00;95.00
5164;DHT22;2601;50.224;10.126;2023-04-25T08:41:00;16.00;94.90
5164;DHT22;2601;50.224;10.126;2023-04-25T08:43:27;16.00;94.70
5164;DHT22;2601;50.224;10.126;2023-04-25T08:45:54;16.00;94.80
5164;DHT22;2601;50.224;10.126;2023-04-25T08:48:24;16.00;94.80
5164;DHT22;2601;50.224;10.126;2023-04-25T08:50:54;16.00;94.70
5164;DHT22;2601;50.224;10.126;2023-04-25T08:53:26;16.00;94.70
5164;DHT22;2601;50.224;10.126;2023-04-25T08:55:53;16.00;94.80
5164;DHT22;2601;50.224;10.126;2023-04-25T08:58:19;15.90;94.70
5164;DHT22;2601;50.224;10.126;2023-04-25T09:00:50;16.00;94.80
5164;DHT22;2601;50.224;10.126;2023-04-25T09:03:18;16.00;94.80
5164;DHT22;2601;50.224;10.126;2023-04-25T09:05:44;16.00;94.90
5164;DHT22;2601;50.224;10.126;2023-04-25T09:08:10;16.00;94.90
5164;DHT22;2601;50.224;10.126;2023-04-25T09:10:37;16.00;94.80
5164;DHT22;2601;50.224;10.126;2023-04-25T09:13:03;16.00;94.80
5164;DHT22;2601;50.224;10.126;2023-04-25T09:15:30;16.00;94.70
5164;DHT22;2601;50.224;10.126;2023-04-25T09:17:56;16.00;94.70
5164;DHT22;2601;50.224;10.126;2023-04-25T09:20:22;16.00;94.60
5164;DHT22;2601;50.224;10.126;2023-04-25T09:22:48;16.00;94.50
5164;DHT22;2601;50.224;10.126;2023-04-25T09:25:13;16.00;94.50
5164;DHT22;2601;50.224;10.126;2023-04-25T09:27:52;16.00;94.50
5164;DHT22;2601;50.224;10.126;2023-04-25T09:30:18;16.00;94.50
5164;DHT22;2601;50.224;10.126;2023-04-25T09:32:44;16.00;94.40
5164;DHT22;2601;50.224;10.126;2023-04-25T09:35:10;16.00;94.30
5164;DHT22;2601;50.224;10.126;2023-04-25T09:37:37;16.00;94.30
5164;DHT22;2601;50.224;10.126;2023-04-25T09:40:05;16.00;94.20
5164;DHT22;2601;50.224;10.126;2023-04-25T09:42:31;16.00;94.20
5164;DHT22;2601;50.224;10.126;2023-04-25T09:45:00;16.00;94.20
5164;DHT22;2601;50.224;10.126;2023-04-25T09:47:27;16.00;94.20
5164;DHT22;2601;50.224;10.126;2023-04-25T09:49:54;16.00;94.20
5164;DHT22;2601;50.224;10.126;2023-04-25T09:52:22;16.00;94.20
5164;DHT22;2601;50.224;10.126;2023-04-25T09:54:48;16.00;94.30
5164;DHT22;2601;50.224;10.126;2023-04-25T09:57:18;16.00;94.30
5164;DHT22;2601;50.224;10.126;2023-04-25T10:02:11;16.00;94.10
5164;DHT22;2601;50.224;10.126;2023-04-25T10:04:38;16.00;94.10
5164;DHT22;2601;50.224;10.126;2023-04-25T10:07:06;16.00;94.10
5164;DHT22;2601;50.224;10.126;2023-04-25T10:09:32;16.00;94.10
5164;DHT22;2601;50.224;10.126;2023-04-25T10:12:00;16.00;94.20
5164;DHT22;2601;50.224;10.126;2023-04-25T10:14:26;16.00;94.10
5164;DHT22;2601;50.224;10.126;2023-04-25T10:16:54;16.00;94.10
5164;DHT22;2601;50.224;10.126;2023-04-25T10:19:22;16.00;93.80
5164;DHT22;2601;50.224;10.126;2023-04-25T10:22:08;16.00;93.70
5164;DHT22;2601;50.224;10.126;2023-04-25T10:24:37;16.00;93.70
5164;DHT22;2601;50.224;10.126;2023-04-25T10:27:04;16.00;93.70
5164;DHT22;2601;50.224;10.126;2023-04-25T10:29:30;16.00;93.60
5164;DHT22;2601;50.224;10.126;2023-04-25T10:31:57;16.00;93.50
5164;DHT22;2601;50.224;10.126;2023-04-25T10:34:39;16.00;93.40
5164;DHT22;2601;50.224;10.126;2023-04-25T10:37:08;16.00;93.50
5164;DHT22;2601;50.224;10.126;2023-04-25T10:39:34;16.00;93.50
5164;DHT22;2601;50.224;10.126;2023-04-25T10:42:02;16.00;93.50
5164;DHT22;2601;50.224;10.126;2023-04-25T10:44:29;16.00;93.60
5164;DHT22;2601;50.224;10.126;2023-04-25T10:47:06;16.00;93.70
5164;DHT22;2601;50.224;10.126;2023-04-25T10:49:42;16.00;93.70
5164;DHT22;2601;50.224;10.126;2023-04-25T10:54:41;16.00;93.50
5164;DHT22;2601;50.224;10.126;2023-04-25T10:57:07;15.90;93.50
5164;DHT22;2601;50.224;10.126;2023-04-25T10:59:33;16.00;93.60
5164;DHT22;2601;50.224;10.126;2023-04-25T11:01:58;16.00;93.60
5164;DHT22;2601;50.224;10.126;2023-04-25T11:04:32;16.00;93.50
5164;DHT22;2601;50.224;10.126;2023-04-25T11:07:10;15.90;93.50
5164;DHT22;2601;50.224;10.126;2023-04-25T11:09:40;16.00;93.40
5164;DHT22;2601;50.224;10.126;2023-04-25T11:12:08;16.00;93.50
5164;DHT22;2601;50.224;10.126;2023-04-25T11:14:34;16.00;93.50
5164;DHT22;2601;50.224;10.126;2023-04-25T11:17:00;16.00;93.50
5164;DHT22;2601;50.224;10.126;2023-04-25T11:19:28;16.00;93.50
5164;DHT22;2601;50.224;10.126;2023-04-25T11:22:01;16.00;93.60
5164;DHT22;2601;50.224;10.126;2023-04-25T11:24:27;16.00;93.60
5164;DHT22;2601;50.224;10.126;2023-04-25T11:26:53;16.00;93.60
5164;DHT22;2601;50.224;10.126;2023-04-25T11:29:22;16.00;93.60
5164;DHT22;2601;50.224;10.126;2023-04-25T11:31:48;15.90;93.50
5164;DHT22;2601;50.224;10.126;2023-04-25T11:34:18;16.00;93.30
5164;DHT22;2601;50.224;10.126;2023-04-25T11:36:45;16.00;93.20
5164;DHT22;2601;50.224;10.126;2023-04-25T11:39:11;16.00;93.20
5164;DHT22;2601;50.224;10.126;2023-04-25T11:41:41;16.00;93.20
5164;DHT22;2601;50.224;10.126;2023-04-25T11:44:07;15.90;93.30
5164;DHT22;2601;50.224;10.126;2023-04-25T11:46:35;15.90;93.30
5164;DHT22;2601;50.224;10.126;2023-04-25T11:49:02;15.90;93.10
5164;DHT22;2601;50.224;10.126;2023-04-25T11:51:28;16.00;93.20
5164;DHT22;2601;50.224;10.126;2023-04-25T11:53:53;16.00;93.30
5164;DHT22;2601;50.224;10.126;2023-04-25T11:56:20;16.00;93.30
5164;DHT22;2601;50.224;10.126;2023-04-25T11:58:58;15.90;93.20
5164;DHT22;2601;50.224;10.126;2023-04-25T12:03:54;16.00;93.10
5164;DHT22;2601;50.224;10.126;2023-04-25T12:06:19;16.00;92.90
5164;DHT22;2601;50.224;10.126;2023-04-25T12:09:04;16.00;93.00
5164;DHT22;2601;50.224;10.126;2023-04-25T12:11:32;16.00;93.10
5164;DHT22;2601;50.224;10.126;2023-04-25T12:14:04;16.00;93.10
5164;DHT22;2601;50.224;10.126;2023-04-25T12:16:46;16.00;93.10
5164;DHT22;2601;50.224;10.126;2023-04-25T12:19:15;16.00;93.10
5164;DHT22;2601;50.224;10.126;2023-04-25T12:21:42;16.00;93.10
5164;DHT22;2601;50.224;10.126;2023-04-25T12:24:21;15.90;93.10
5164;DHT22;2601;50.224;10.126;2023-04-25T12:27:02;16.00;93.10
5164;DHT22;2601;50.224;10.126;2023-04-25T12:29:30;16.00;93.10
5164;DHT22;2601;50.224;10.126;2023-04-25T12:31:57;16.00;93.10
5164;DHT22;2601;50.224;10.126;2023-04-25T12:34:23;16.00;93.10
5164;DHT22;2601;50.224;10.126;2023-04-25T12:36:49;16.00;93.10
5164;DHT22;2601;50.224;10.126;2023-04-25T12:39:23;16.00;93.20
5164;DHT22;2601;50.224;10.126;2023-04-25T12:41:50;15.90;93.10
5164;DHT22;2601;50.224;10.126;2023-04-25T12:44:17;16.00;92.90
5164;DHT22;2601;50.224;10.126;2023-04-25T12:46:43;16.00;92.80
5164;DHT22;2601;50.224;10.126;2023-04-25T12:49:09;15.90;92.80
5164;DHT22;2601;50.224;10.126;2023-04-25T12:51:35;15.90;92.90
5164;DHT22;2601;50.224;10.126;2023-04-25T12:54:02;15.90;92.80
5164;DHT22;2601;50.224;10.126;2023-04-25T12:56:28;15.90;92.80
5164;DHT22;2601;50.224;10.126;2023-04-25T12:58:54;15.90;92.80
5164;DHT22;2601;50.224;10.126;2023-04-25T13:01:24;15.90;92.70
5164;DHT22;2601;50.224;10.126;2023-04-25T13:03:50;15.90;92.60
5164;DHT22;2601;50.224;10.126;2023-04-25T13:06:17;15.90;92.50
5164;DHT22;2601;50.224;10.126;2023-04-25T13:08:43;15.90;92.60
5164;DHT22;2601;50.224;10.126;2023-04-25T13:11:09;15.90;92.60
5164;DHT22;2601;50.224;10.126;2023-04-25T13:13:35;15.90;92.60
5164;DHT22;2601;50.224;10.126;2023-04-25T13:16:04;15.90;92.40
5164;DHT22;2601;50.224;10.126;2023-04-25T13:18:30;15.90;92.40
5164;DHT22;2601;50.224;10.126;2023-04-25T13:20:56;15.90;92.30
5164;DHT22;2601;50.224;10.126;2023-04-25T13:23:23;15.90;92.30
5164;DHT22;2601;50.224;10.126;2023-04-25T13:25:48;15.90;92.30
5164;DHT22;2601;50.224;10.126;2023-04-25T13:28:14;15.90;92.20
5164;DHT22;2601;50.224;10.126;2023-04-25T13:30:40;15.90;92.60
5164;DHT22;2601;50.224;10.126;2023-04-25T13:33:06;15.90;92.30
5164;DHT22;2601;50.224;10.126;2023-04-25T13:35:33;15.90;92.30
5164;DHT22;2601;50.224;10.126;2023-04-25T13:37:59;15.90;92.30
5164;DHT22;2601;50.224;10.126;2023-04-25T13:40:25;15.90;92.30
5164;DHT22;2601;50.224;10.126;2023-04-25T13:42:52;15.90;92.30
5164;DHT22;2601;50.224;10.126;2023-04-25T13:45:18;15.90;92.10
5164;DHT22;2601;50.224;10.126;2023-04-25T13:47:44;15.90;92.10
5164;DHT22;2601;50.224;10.126;2023-04-25T13:50:10;15.90;92.20
5164;DHT22;2601;50.224;10.126;2023-04-25T13:52:35;15.90;92.20
5164;DHT22;2601;50.224;10.126;2023-04-25T13:55:01;15.90;92.20
5164;DHT22;2601;50.224;10.126;2023-04-25T13:57:30;15.90;92.20
5164;DHT22;2601;50.224;10.126;2023-04-25T13:59:55;15.90;92.10
5164;DHT22;2601;50.224;10.126;2023-04-25T14:02:21;15.90;92.10
5164;DHT22;2601;50.224;10.126;2023-04-25T14:04:47;15.90;92.00
5164;DHT22;2601;50.224;10.126;2023-04-25T14:07:13;15.90;91.80
5164;DHT22;2601;50.224;10.126;2023-04-25T14:09:41;15.90;91.90
5164;DHT22;2601;50.224;10.126;2023-04-25T14:12:07;15.90;91.90
5164;DHT22;2601;50.224;10.126;2023-04-25T14:14:32;15.90;91.90
5164;DHT22;2601;50.224;10.126;2023-04-25T14:16:58;15.90;92.00
5164;DHT22;2601;50.224;10.126;2023-04-25T14:19:23;15.90;92.10
5164;DHT22;2601;50.224;10.126;2023-04-25T14:21:49;15.90;92.00
5164;DHT22;2601;50.224;10.126;2023-04-25T14:24:15;15.90;92.00
5164;DHT22;2601;50.224;10.126;2023-04-25T14:26:41;15.90;92.00
5164;DHT22;2601;50.224;10.126;2023-04-25T14:29:10;15.90;91.90
5164;DHT22;2601;50.224;10.126;2023-04-25T14:31:37;15.90;91.90
5164;DHT22;2601;50.224;10.126;2023-04-25T14:34:04;15.90;91.90
5164;DHT22;2601;50.224;10.126;2023-04-25T14:36:29;15.90;92.00
5164;DHT22;2601;50.224;10.126;2023-04-25T14:38:56;15.90;92.20
5164;DHT22;2601;50.224;10.126;2023-04-25T14:41:22;15.90;92.10
5164;DHT22;2601;50.224;10.126;2023-04-25T14:43:48;15.90;91.90
5164;DHT22;2601;50.224;10.126;2023-04-25T14:46:14;15.90;92.00
5164;DHT22;2601;50.224;10.126;2023-04-25T14:48:39;15.90;92.10
5164;DHT22;2601;50.224;10.126;2023-04-25T14:51:05;15.90;92.10
5164;DHT22;2601;50.224;10.126;2023-04-25T14:53:31;16.00;91.90
5164;DHT22;2601;50.224;10.126;2023-04-25T14:55:57;15.90;92.00
5164;DHT22;2601;50.224;10.126;2023-04-25T14:58:23;16.00;92.00
5164;DHT22;2601;50.224;10.126;2023-04-25T15:00:49;16.00;92.00
5164;DHT22;2601;50.224;10.126;2023-04-25T15:03:16;15.90;92.00
5164;DHT22;2601;50.224;10.126;2023-04-25T15:05:43;16.00;92.00
5164;DHT22;2601;50.224;10.126;2023-04-25T15:08:09;15.90;92.00
5164;DHT22;2601;50.224;10.126;2023-04-25T15:10:36;16.00;91.90
5164;DHT22;2601;50.224;10.126;2023-04-25T15:13:01;16.00;92.00
5164;DHT22;2601;50.224;10.126;2023-04-25T15:15:28;16.00;91.90
5164;DHT22;2601;50.224;10.126;2023-04-25T15:17:53;16.00;91.80
5164;DHT22;2601;50.224;10.126;2023-04-25T15:20:20;16.00;91.90
5164;DHT22;2601;50.224;10.126;2023-04-25T15:22:46;16.00;91.80
5164;DHT22;2601;50.224;10.126;2023-04-25T15:25:14;16.00;91.80
5164;DHT22;2601;50.224;10.126;2023-04-25T15:27:43;16.00;91.50
5164;DHT22;2601;50.224;10.126;2023-04-25T15:30:12;16.00;91.60
5164;DHT22;2601;50.224;10.126;2023-04-25T15:32:39;16.00;91.50
5164;DHT22;2601;50.224;10.126;2023-04-25T15:35:05;16.00;91.50
5164;DHT22;2601;50.224;10.126;2023-04-25T15:37:35;16.00;91.50
5164;DHT22;2601;50.224;10.126;2023-04-25T15:40:08;16.00;91.40
5164;DHT22;2601;50.224;10.126;2023-04-25T15:42:35;16.00;91.20
5164;DHT22;2601;50.224;10.126;2023-04-25T15:45:06;16.00;91.20
5164;DHT22;2601;50.224;10.126;2023-04-25T15:47:33;16.00;91.20
5164;DHT22;2601;50.224;10.126;2023-04-25T15:49:59;16.00;91.00